Time;durP1;ratioP1;P1;durP2;ratioP2;P2;SDS_P1;SDS_P2;PMS_P1;PMS_P2;Temp;Humidity;BMP_temperature;BMP_pressure;BME280_temperature;BME280_humidity;BME280_pressure;Samples;Min_cycle;Max_cycle;Signal;HPM_P1;HPM_P2
2022/07/11 00:01:41;;;;;;;0.50;0.50;;;15.80;99.90;;;;;;4444705;32;20073;-65
2022/07/11 00:04:07;;;;;;;0.47;0.47;;;15.70;99.90;;;;;;4444391;32;20056;-65
2022/07/11 00:06:33;;;;;;;0.20;0.20;;;15.70;99.90;;;;;;4429970;32;20061;-65
2022/07/11 00:08:58;;;;;;;0.30;0.30;;;15.70;99.90;;;;;;4444891;32;20127;-65
2022/07/11 00:11:23;;;;;;;0.32;0.32;;;15.70;99.90;;;;;;4444827;32;20078;-65
2022/07/11 00:13:50;;;;;;;0.30;0.30;;;15.70;99.90;;;;;;4444683;32;20131;-65
2022/07/11 00:16:15;;;;;;;0.20;0.20;;;15.70;99.90;;;;;;4433380;32;20077;-65
2022/07/11 00:18:41;;;;;;;0.30;0.30;;;15.60;99.90;;;;;;4414895;32;20061;-65
2022/07/11 00:21:06;;;;;;;0.22;0.22;;;15.60;99.90;;;;;;4423020;32;20136;-65
2022/07/11 00:23:32;;;;;;;0.30;0.30;;;15.60;99.90;;;;;;4394032;32;20117;-64
2022/07/11 00:25:57;;;;;;;0.30;0.30;;;15.60;99.90;;;;;;4423787;32;20177;-64
2022/07/11 00:28:23;;;;;;;0.47;0.45;;;15.60;99.90;;;;;;4428401;32;20057;-64
2022/07/11 00:30:48;;;;;;;0.50;0.50;;;15.50;99.90;;;;;;4428197;32;20112;-64
2022/07/11 00:33:14;;;;;;;1.25;0.85;;;15.50;99.90;;;;;;4428558;32;20061;-64
2022/07/11 00:35:39;;;;;;;0.30;0.30;;;15.40;99.90;;;;;;4428892;32;20069;-64
2022/07/11 00:38:05;;;;;;;0.50;0.50;;;15.40;99.90;;;;;;4429531;32;20069;-64
2022/07/11 00:40:30;;;;;;;4.05;1.27;;;15.20;99.90;;;;;;4431765;32;20414;-64
2022/07/11 00:42:56;;;;;;;0.30;0.30;;;15.10;99.90;;;;;;4431715;32;20533;-64
2022/07/11 00:45:21;;;;;;;0.30;0.30;;;15.20;99.90;;;;;;4441010;32;20070;-64
2022/07/11 00:47:47;;;;;;;0.55;0.55;;;15.20;99.90;;;;;;4447042;32;20050;-64
2022/07/11 00:50:13;;;;;;;0.20;0.20;;;15.10;99.90;;;;;;4419407;32;20407;-64
2022/07/11 00:52:41;;;;;;;26.17;2.28;;;15.10;99.90;;;;;;4413865;32;20065;-64
2022/07/11 00:55:07;;;;;;;0.75;0.75;;;15.10;99.90;;;;;;4434761;32;20088;-64
2022/07/11 00:57:35;;;;;;;0.22;0.22;;;15.10;99.90;;;;;;4446280;32;20074;-64
2022/07/11 01:00:01;;;;;;;0.30;0.30;;;15.00;99.90;;;;;;4432971;32;20516;-64
2022/07/11 01:02:26;;;;;;;0.25;0.25;;;15.00;99.90;;;;;;4445954;32;20081;-64
2022/07/11 01:04:52;;;;;;;0.50;0.50;;;14.90;99.90;;;;;;4447618;32;20078;-64
2022/07/11 01:07:18;;;;;;;0.43;0.43;;;14.90;99.90;;;;;;4431732;32;20062;-64
2022/07/11 01:09:43;;;;;;;0.25;0.25;;;14.80;99.90;;;;;;4435168;32;20061;-64
2022/07/11 01:12:09;;;;;;;0.62;0.62;;;14.80;99.90;;;;;;4446381;32;20085;-64
2022/07/11 01:14:34;;;;;;;12.40;1.67;;;14.70;99.90;;;;;;4446189;32;20064;-64
2022/07/11 01:17:00;;;;;;;1.08;0.40;;;14.70;99.90;;;;;;4446419;32;20061;-64
2022/07/11 01:19:25;;;;;;;0.80;0.50;;;14.50;99.90;;;;;;4445867;32;20077;-64
2022/07/11 01:21:54;;;;;;;0.57;0.50;;;14.50;99.90;;;;;;4434266;32;20388;-64
2022/07/11 01:24:21;;;;;;;0.20;0.20;;;14.50;99.90;;;;;;4415316;32;20148;-64
2022/07/11 01:26:48;;;;;;;4.40;0.52;;;14.40;99.90;;;;;;4445029;32;20057;-64
2022/07/11 01:29:14;;;;;;;0.30;0.30;;;14.40;99.90;;;;;;4446166;32;20509;-64
2022/07/11 01:31:40;;;;;;;22.13;0.50;;;14.30;99.90;;;;;;4428231;32;83675;-64
2022/07/11 01:34:06;;;;;;;0.30;0.30;;;14.30;99.90;;;;;;4429308;32;20057;-64
2022/07/11 01:36:32;;;;;;;2.20;0.73;;;14.20;99.90;;;;;;4431332;32;20065;-64
2022/07/11 01:38:57;;;;;;;2.28;1.02;;;14.20;99.90;;;;;;4417250;32;20625;-64
2022/07/11 01:41:23;;;;;;;0.30;0.30;;;14.20;99.90;;;;;;4431142;32;20053;-64
2022/07/11 01:43:49;;;;;;;0.50;0.50;;;14.10;99.90;;;;;;4430068;32;20130;-64
2022/07/11 01:46:16;;;;;;;3.25;1.75;;;14.00;99.90;;;;;;4430950;32;20170;-64
2022/07/11 01:48:41;;;;;;;0.20;0.20;;;14.10;99.90;;;;;;4434394;32;20057;-64
2022/07/11 01:51:07;;;;;;;1.08;0.77;;;14.00;99.90;;;;;;4438366;32;20089;-64
2022/07/11 01:53:32;;;;;;;0.30;0.30;;;13.90;99.90;;;;;;4424812;32;20116;-64
2022/07/11 01:55:58;;;;;;;0.98;0.40;;;13.90;99.90;;;;;;4427406;32;20057;-64
2022/07/11 01:58:23;;;;;;;21.70;1.00;;;13.80;99.90;;;;;;4446483;32;20073;-64
2022/07/11 02:00:49;;;;;;;0.20;0.20;;;13.80;99.90;;;;;;4445052;32;20061;-64
2022/07/11 02:03:14;;;;;;;0.37;0.37;;;13.70;99.90;;;;;;4446177;32;20521;-64
2022/07/11 02:05:40;;;;;;;0.52;0.52;;;13.80;99.90;;;;;;4441370;32;20069;-64
2022/07/11 02:08:15;;;;;;;0.30;0.30;;;13.80;99.90;;;;;;4430729;32;20130;-64
2022/07/11 02:10:45;;;;;;;0.50;0.50;;;13.90;99.90;;;;;;4416802;32;20410;-64
2022/07/11 02:13:12;;;;;;;0.25;0.25;;;13.80;99.90;;;;;;4429527;32;20078;-64
2022/07/11 02:15:39;;;;;;;1.35;0.95;;;13.70;99.90;;;;;;4416566;32;20530;-64
2022/07/11 02:18:05;;;;;;;0.20;0.20;;;13.80;99.90;;;;;;4415988;32;20404;-64
2022/07/11 02:20:33;;;;;;;0.30;0.30;;;13.80;99.90;;;;;;4427937;32;20469;-64
2022/07/11 02:22:58;;;;;;;0.50;0.50;;;13.80;99.90;;;;;;4395438;32;20078;-64
2022/07/11 02:25:24;;;;;;;0.55;0.50;;;13.80;99.90;;;;;;4421402;32;20062;-64
2022/07/11 02:27:51;;;;;;;0.30;0.30;;;13.80;99.90;;;;;;4430446;32;20073;-64
2022/07/11 02:30:16;;;;;;;1.42;0.30;;;13.70;99.90;;;;;;4419059;32;20060;-64
2022/07/11 02:32:42;;;;;;;0.75;0.52;;;13.60;99.90;;;;;;4444686;32;20564;-64
2022/07/11 02:35:08;;;;;;;0.32;0.32;;;13.50;99.90;;;;;;4444821;32;20108;-64
2022/07/11 02:37:33;;;;;;;0.30;0.30;;;13.30;99.90;;;;;;4445738;32;20074;-64
2022/07/11 02:39:59;;;;;;;0.30;0.30;;;13.40;99.90;;;;;;4444868;32;20061;-64
2022/07/11 02:42:24;;;;;;;0.30;0.30;;;13.40;99.90;;;;;;4430555;32;20073;-64
2022/07/11 02:44:50;;;;;;;0.25;0.25;;;13.40;99.90;;;;;;4426190;32;20153;-64
2022/07/11 02:47:15;;;;;;;0.30;0.30;;;13.40;99.90;;;;;;4416593;32;20057;-64
2022/07/11 02:49:41;;;;;;;0.43;0.43;;;13.30;99.90;;;;;;4439118;32;20085;-64
2022/07/11 02:52:07;;;;;;;0.50;0.50;;;13.40;99.90;;;;;;4429375;32;20089;-64
2022/07/11 02:54:33;;;;;;;0.68;0.68;;;13.30;99.90;;;;;;4413565;32;20053;-64
2022/07/11 02:56:58;;;;;;;0.20;0.20;;;13.30;99.90;;;;;;4445329;32;20119;-64
2022/07/11 02:59:24;;;;;;;0.20;0.20;;;13.20;99.90;;;;;;4445876;32;20441;-64
2022/07/11 03:01:50;;;;;;;0.15;0.15;;;13.20;99.90;;;;;;4430516;32;20064;-64
2022/07/11 03:04:16;;;;;;;0.30;0.30;;;13.30;99.90;;;;;;4444483;32;20058;-64
2022/07/11 03:06:42;;;;;;;0.30;0.30;;;13.20;99.90;;;;;;4443962;32;20073;-64
2022/07/11 03:09:08;;;;;;;2.62;1.10;;;13.20;99.90;;;;;;4444911;32;20532;-64
2022/07/11 03:11:34;;;;;;;0.57;0.35;;;13.20;99.90;;;;;;4431768;32;20062;-64
2022/07/11 03:14:01;;;;;;;0.30;0.30;;;13.30;99.90;;;;;;4430824;32;20079;-64
2022/07/11 03:16:28;;;;;;;0.40;0.40;;;13.20;99.90;;;;;;4431202;32;20070;-64
2022/07/11 03:18:53;;;;;;;0.40;0.40;;;13.10;99.90;;;;;;4444759;32;20057;-64
2022/07/11 03:21:19;;;;;;;4.22;1.25;;;13.10;99.90;;;;;;4421878;32;20057;-64
2022/07/11 03:23:44;;;;;;;5.32;0.55;;;13.00;99.90;;;;;;4407769;32;20131;-64
2022/07/11 03:26:11;;;;;;;2.17;0.50;;;13.10;99.90;;;;;;4425909;32;20112;-64
2022/07/11 03:28:36;;;;;;;0.30;0.30;;;13.10;99.90;;;;;;4429635;32;20551;-64
2022/07/11 03:31:02;;;;;;;1.40;0.77;;;13.00;99.90;;;;;;4415303;32;20184;-64
2022/07/11 03:33:27;;;;;;;10.38;0.50;;;13.00;99.90;;;;;;4429755;32;20062;-64
2022/07/11 03:35:53;;;;;;;0.30;0.30;;;13.10;99.90;;;;;;4429543;32;20058;-64
2022/07/11 03:38:20;;;;;;;3.55;0.40;;;13.00;99.90;;;;;;4429329;32;20406;-64
2022/07/11 03:40:47;;;;;;;0.22;0.22;;;13.10;99.90;;;;;;4414741;32;20498;-64
2022/07/11 03:43:12;;;;;;;0.40;0.40;;;13.10;99.90;;;;;;4414713;32;20113;-64
2022/07/11 03:45:38;;;;;;;2.03;1.10;;;13.10;99.90;;;;;;4412016;32;20509;-64
2022/07/11 03:48:04;;;;;;;8.25;2.03;;;13.10;99.90;;;;;;4444010;32;20077;-64
2022/07/11 03:50:30;;;;;;;0.37;0.37;;;13.10;99.90;;;;;;4428831;32;20503;-64
2022/07/11 03:52:56;;;;;;;0.20;0.20;;;13.10;99.90;;;;;;4422704;32;20073;-65
2022/07/11 03:55:21;;;;;;;0.30;0.30;;;13.00;99.90;;;;;;4418031;32;20492;-65
2022/07/11 03:57:47;;;;;;;0.20;0.20;;;13.00;99.90;;;;;;4429551;32;20078;-65
2022/07/11 04:00:14;;;;;;;0.40;0.40;;;13.10;99.90;;;;;;4429832;32;20082;-65
2022/07/11 04:02:39;;;;;;;0.20;0.20;;;13.20;99.90;;;;;;4429174;32;20179;-65
2022/07/11 04:05:05;;;;;;;0.20;0.20;;;13.20;99.90;;;;;;4428791;32;20097;-66
2022/07/11 04:07:31;;;;;;;0.20;0.20;;;13.20;99.90;;;;;;4429434;32;20057;-65
2022/07/11 04:09:57;;;;;;;0.30;0.30;;;13.10;99.90;;;;;;4428144;32;20086;-65
2022/07/11 04:12:23;;;;;;;0.10;0.10;;;13.20;99.90;;;;;;4415190;32;20181;-65
2022/07/11 04:14:48;;;;;;;15.13;0.50;;;13.20;99.90;;;;;;4429105;32;20100;-65
2022/07/11 04:17:14;;;;;;;0.40;0.40;;;13.20;99.90;;;;;;4429820;32;20081;-65
2022/07/11 04:19:39;;;;;;;0.47;0.47;;;13.20;99.90;;;;;;4423927;32;20066;-65
2022/07/11 04:22:05;;;;;;;0.20;0.20;;;13.30;99.90;;;;;;4403640;32;20143;-65
2022/07/11 04:24:31;;;;;;;0.10;0.10;;;13.40;99.90;;;;;;4415291;32;20537;-65
2022/07/11 04:26:57;;;;;;;0.30;0.30;;;13.40;99.90;;;;;;4432467;32;20057;-65
2022/07/11 04:29:23;;;;;;;1.70;0.73;;;13.40;99.90;;;;;;4428747;32;20081;-65
2022/07/11 04:31:50;;;;;;;0.47;0.47;;;13.40;99.90;;;;;;4434521;32;20431;-65
2022/07/11 04:34:16;;;;;;;14.55;1.25;;;13.40;99.90;;;;;;4437113;32;20080;-65
2022/07/11 04:36:42;;;;;;;0.90;0.40;;;13.40;99.90;;;;;;4416123;32;20074;-65
2022/07/11 04:39:08;;;;;;;0.50;0.50;;;13.40;99.90;;;;;;4425533;32;20069;-65
2022/07/11 04:41:33;;;;;;;0.75;0.65;;;13.50;99.90;;;;;;4428246;32;20165;-65
2022/07/11 04:43:59;;;;;;;0.20;0.20;;;13.50;99.90;;;;;;4437098;32;20078;-65
2022/07/11 04:46:25;;;;;;;0.13;0.13;;;13.50;99.90;;;;;;4430503;32;20509;-65
2022/07/11 04:48:50;;;;;;;0.22;0.22;;;13.60;99.90;;;;;;4443573;32;20073;-65
2022/07/11 04:51:17;;;;;;;0.30;0.30;;;13.60;99.90;;;;;;4433815;32;21623;-65
2022/07/11 04:53:42;;;;;;;0.20;0.20;;;13.60;99.90;;;;;;4408466;32;20609;-65
2022/07/11 04:56:08;;;;;;;0.30;0.30;;;13.70;99.90;;;;;;4400763;32;20062;-65
2022/07/11 04:58:35;;;;;;;0.30;0.30;;;13.70;99.90;;;;;;4434524;32;20124;-65
2022/07/11 05:01:01;;;;;;;0.30;0.30;;;13.80;99.90;;;;;;4428414;32;20053;-65
2022/07/11 05:03:26;;;;;;;0.55;0.55;;;13.80;99.90;;;;;;4410894;32;20553;-66
2022/07/11 05:05:52;;;;;;;2.70;1.00;;;13.70;99.90;;;;;;4430477;32;20082;-65
2022/07/11 05:08:17;;;;;;;0.30;0.30;;;13.80;99.90;;;;;;4419021;32;20082;-66
2022/07/11 05:10:43;;;;;;;0.37;0.37;;;13.80;99.90;;;;;;4420809;32;20069;-64
2022/07/11 05:13:08;;;;;;;0.30;0.30;;;13.90;99.90;;;;;;4425434;32;20061;-64
2022/07/11 05:15:34;;;;;;;0.30;0.30;;;14.00;99.90;;;;;;4430549;32;20094;-64
2022/07/11 05:17:59;;;;;;;8.60;0.65;;;14.00;99.90;;;;;;4420292;32;20073;-65
2022/07/11 05:20:25;;;;;;;0.20;0.20;;;14.00;99.90;;;;;;4430994;32;20583;-64
2022/07/11 05:22:50;;;;;;;0.20;0.20;;;14.00;99.90;;;;;;4401190;32;20385;-64
2022/07/11 05:25:15;;;;;;;0.40;0.40;;;14.00;99.90;;;;;;4404599;32;20076;-64
2022/07/11 05:27:41;;;;;;;0.43;0.43;;;13.90;99.90;;;;;;4439266;32;20066;-64
2022/07/11 05:30:07;;;;;;;0.50;0.50;;;14.00;99.90;;;;;;4435519;32;20556;-64
2022/07/11 05:32:33;;;;;;;1.75;0.88;;;14.00;99.90;;;;;;4429955;32;20069;-64
2022/07/11 05:35:00;;;;;;;2.30;0.75;;;14.10;99.90;;;;;;4431378;32;20581;-65
2022/07/11 05:37:26;;;;;;;0.40;0.40;;;14.20;99.90;;;;;;4435852;32;20078;-64
2022/07/11 05:39:51;;;;;;;1.00;0.40;;;14.20;99.90;;;;;;4434786;32;20065;-65
2022/07/11 05:42:17;;;;;;;0.30;0.20;;;14.30;99.90;;;;;;4422213;32;20544;-65
2022/07/11 05:44:42;;;;;;;0.30;0.30;;;14.30;99.90;;;;;;4427297;32;20073;-66
2022/07/11 05:47:08;;;;;;;0.40;0.40;;;14.30;99.90;;;;;;4442858;32;20076;-67
2022/07/11 05:49:34;;;;;;;1.65;0.80;;;14.40;99.90;;;;;;4424211;32;20057;-66
2022/07/11 05:51:59;;;;;;;0.20;0.20;;;14.40;99.90;;;;;;4408271;32;20143;-64
2022/07/11 05:54:25;;;;;;;1.98;0.73;;;14.40;99.90;;;;;;4408606;32;20065;-64
2022/07/11 05:56:51;;;;;;;0.20;0.20;;;14.50;99.90;;;;;;4430987;32;20115;-64
2022/07/11 05:59:17;;;;;;;0.20;0.20;;;14.50;99.90;;;;;;4430687;32;20543;-64
2022/07/11 06:01:43;;;;;;;0.30;0.30;;;14.50;99.90;;;;;;4421393;32;20073;-64
2022/07/11 06:04:08;;;;;;;0.52;0.52;;;14.50;99.90;;;;;;4421132;32;20112;-64
2022/07/11 06:06:33;;;;;;;0.28;0.28;;;14.60;99.90;;;;;;4434589;32;20057;-65
2022/07/11 06:08:59;;;;;;;0.20;0.20;;;14.60;99.90;;;;;;4429181;32;20070;-65
2022/07/11 06:11:25;;;;;;;0.40;0.40;;;14.60;99.90;;;;;;4416671;32;20116;-65
2022/07/11 06:13:50;;;;;;;0.20;0.20;;;14.70;99.90;;;;;;4420475;32;20068;-65
2022/07/11 06:16:17;;;;;;;0.25;0.25;;;14.70;99.90;;;;;;4409034;32;20078;-65
2022/07/11 06:18:43;;;;;;;0.50;0.50;;;14.70;99.90;;;;;;4415574;32;20060;-65
2022/07/11 06:21:09;;;;;;;0.80;0.37;;;14.70;99.90;;;;;;4421690;32;20127;-65
2022/07/11 06:23:34;;;;;;;3.62;1.25;;;14.80;99.90;;;;;;4425328;32;20128;-65
2022/07/11 06:26:01;;;;;;;0.20;0.20;;;14.90;99.90;;;;;;4440880;32;20452;-65
2022/07/11 06:28:26;;;;;;;3.30;1.58;;;15.00;99.90;;;;;;4440102;32;20061;-65
2022/07/11 06:30:52;;;;;;;1.05;0.60;;;15.00;99.90;;;;;;4423653;32;20517;-65
2022/07/11 06:33:19;;;;;;;0.40;0.40;;;15.20;99.90;;;;;;4420403;32;20160;-65
2022/07/11 06:35:45;;;;;;;0.30;0.30;;;15.30;99.90;;;;;;4429053;32;20077;-65
2022/07/11 06:38:11;;;;;;;2.92;0.65;;;15.40;99.90;;;;;;4435102;32;20062;-65
2022/07/11 06:40:37;;;;;;;0.30;0.30;;;15.40;99.90;;;;;;4430528;32;20124;-65
2022/07/11 06:43:03;;;;;;;0.30;0.30;;;15.40;99.90;;;;;;4423912;32;20393;-65
2022/07/11 06:45:28;;;;;;;0.30;0.30;;;15.50;99.90;;;;;;4429726;32;20077;-65
2022/07/11 06:47:54;;;;;;;0.85;0.70;;;15.60;99.90;;;;;;4445600;32;20069;-66
2022/07/11 06:50:20;;;;;;;0.20;0.20;;;15.60;99.90;;;;;;4437372;32;20077;-66
2022/07/11 06:52:47;;;;;;;2.10;0.98;;;15.60;99.90;;;;;;4410924;32;20443;-65
2022/07/11 06:55:12;;;;;;;0.43;0.43;;;15.70;99.90;;;;;;4429208;32;20061;-65
2022/07/11 06:57:38;;;;;;;0.30;0.30;;;15.80;99.90;;;;;;4431798;32;20068;-65
2022/07/11 07:00:05;;;;;;;0.20;0.20;;;15.90;99.90;;;;;;4429235;32;20053;-65
2022/07/11 07:02:30;;;;;;;0.60;0.60;;;15.90;99.90;;;;;;4420605;32;20565;-65
2022/07/11 07:04:58;;;;;;;0.30;0.30;;;16.00;99.90;;;;;;4439727;32;20061;-65
2022/07/11 07:07:24;;;;;;;0.30;0.30;;;16.10;99.90;;;;;;4434401;32;20065;-65
2022/07/11 07:09:49;;;;;;;3.12;0.90;;;16.10;99.90;;;;;;4428380;32;20073;-65
2022/07/11 07:12:15;;;;;;;0.22;0.22;;;16.20;99.90;;;;;;4425567;32;20065;-65
2022/07/11 07:14:41;;;;;;;1.85;1.20;;;16.20;99.90;;;;;;4419254;32;20053;-65
2022/07/11 07:17:06;;;;;;;17.15;0.90;;;16.30;99.90;;;;;;4412208;32;20065;-65
2022/07/11 07:19:32;;;;;;;3.12;0.60;;;16.30;99.90;;;;;;4412906;32;20415;-65
2022/07/11 07:21:57;;;;;;;0.75;0.75;;;16.40;99.90;;;;;;4400501;32;20053;-65
2022/07/11 07:24:23;;;;;;;0.30;0.30;;;16.50;99.90;;;;;;4396246;32;20546;-65
2022/07/11 07:26:48;;;;;;;0.25;0.25;;;16.40;99.90;;;;;;4413593;32;20412;-66
2022/07/11 07:29:14;;;;;;;0.85;0.30;;;16.60;99.90;;;;;;4414935;32;20071;-66
2022/07/11 07:31:40;;;;;;;5.62;0.82;;;16.60;99.90;;;;;;4410255;32;20084;-65
2022/07/11 07:34:05;;;;;;;0.30;0.30;;;16.50;99.90;;;;;;4419952;32;20126;-66
2022/07/11 07:36:31;;;;;;;0.20;0.20;;;16.60;99.90;;;;;;4427791;32;20061;-66
2022/07/11 07:38:57;;;;;;;0.45;0.45;;;16.70;99.90;;;;;;4442532;32;20061;-66
2022/07/11 07:41:22;;;;;;;0.20;0.20;;;16.70;99.90;;;;;;4445497;32;20061;-66
2022/07/11 07:43:49;;;;;;;0.20;0.20;;;16.80;99.90;;;;;;4433866;32;20060;-66
2022/07/11 07:46:14;;;;;;;0.70;0.70;;;16.90;99.90;;;;;;4438063;32;20062;-66
2022/07/11 07:48:40;;;;;;;0.30;0.30;;;16.80;99.90;;;;;;4444597;32;20073;-66
2022/07/11 07:51:06;;;;;;;0.30;0.30;;;16.70;99.90;;;;;;4436521;32;20064;-66
2022/07/11 07:53:32;;;;;;;1.42;0.75;;;16.90;99.90;;;;;;4423506;32;20116;-67
2022/07/11 07:55:57;;;;;;;0.55;0.55;;;17.10;99.90;;;;;;4438899;32;20526;-66
2022/07/11 07:58:23;;;;;;;0.20;0.20;;;17.30;99.90;;;;;;4445516;32;20126;-66
2022/07/11 08:01:48;;;;;;;0.20;0.20;;;17.50;99.90;;;;;;4440328;32;20524;-66
2022/07/11 08:03:33;;;;;;;0.30;0.30;;;17.50;99.90;;;;;;4432180;32;20062;-66
2022/07/11 08:05:59;;;;;;;0.20;0.20;;;17.50;99.90;;;;;;4443764;32;20084;-66
2022/07/11 08:08:24;;;;;;;0.30;0.30;;;17.80;99.90;;;;;;4444279;32;20364;-66
2022/07/11 08:10:51;;;;;;;0.20;0.20;;;18.00;99.90;;;;;;4444208;32;20061;-66
2022/07/11 08:13:19;;;;;;;0.40;0.40;;;18.00;99.90;;;;;;4436028;32;20090;-64
2022/07/11 08:15:45;;;;;;;0.30;0.30;;;18.20;99.90;;;;;;4420810;32;20065;-64
2022/07/11 08:18:10;;;;;;;0.22;0.22;;;18.40;99.90;;;;;;4444786;32;20159;-64
2022/07/11 08:20:35;;;;;;;2.42;0.52;;;18.50;99.90;;;;;;4429660;32;20414;-64
2022/07/11 08:23:03;;;;;;;0.30;0.30;;;18.60;99.90;;;;;;4408549;32;20085;-64
2022/07/11 08:25:30;;;;;;;0.52;0.43;;;18.70;99.90;;;;;;4417568;32;20065;-64
2022/07/11 08:27:55;;;;;;;2.17;0.55;;;18.80;99.90;;;;;;4427811;32;20066;-64
2022/07/11 08:30:21;;;;;;;0.30;0.30;;;19.00;99.90;;;;;;4424164;32;20081;-65
2022/07/11 08:32:46;;;;;;;0.28;0.28;;;19.10;99.90;;;;;;4418704;32;20120;-65
2022/07/11 08:35:15;;;;;;;0.20;0.20;;;19.10;99.90;;;;;;4424632;32;20074;-65
2022/07/11 08:37:41;;;;;;;0.20;0.20;;;19.30;99.90;;;;;;4429056;32;20053;-66
2022/07/11 08:40:07;;;;;;;1.00;0.43;;;19.50;99.90;;;;;;4439498;32;20077;-65
2022/07/11 08:42:39;;;;;;;1.95;0.95;;;19.50;99.90;;;;;;4437764;32;20057;-65
2022/07/11 08:45:05;;;;;;;0.40;0.40;;;19.60;99.90;;;;;;4424406;32;20073;-66
2022/07/11 08:47:32;;;;;;;0.20;0.20;;;19.80;99.90;;;;;;4436747;32;20537;-65
2022/07/11 08:49:58;;;;;;;0.20;0.20;;;19.90;99.90;;;;;;4443921;32;20568;-65
2022/07/11 08:52:24;;;;;;;0.20;0.20;;;20.10;99.90;;;;;;4424013;32;20427;-65
2022/07/11 08:54:51;;;;;;;0.55;0.37;;;20.00;99.90;;;;;;4429725;32;20065;-65
2022/07/11 08:57:18;;;;;;;1.25;1.12;;;20.00;99.90;;;;;;4442354;32;20057;-65
2022/07/11 08:59:46;;;;;;;0.25;0.25;;;20.00;99.90;;;;;;4443505;32;20131;-65
2022/07/11 09:02:13;;;;;;;0.35;0.35;;;19.90;99.90;;;;;;4436764;32;20493;-65
2022/07/11 09:04:38;;;;;;;0.20;0.20;;;19.60;99.90;;;;;;4438543;32;20403;-65
2022/07/11 09:07:04;;;;;;;1.10;0.55;;;19.50;99.90;;;;;;4446280;32;20232;-66
2022/07/11 09:09:30;;;;;;;0.30;0.30;;;19.50;99.90;;;;;;4442551;32;20094;-66
2022/07/11 09:11:57;;;;;;;0.20;0.20;;;19.90;99.90;;;;;;4429309;32;20556;-65
2022/07/11 09:14:26;;;;;;;1.40;1.12;;;20.00;99.90;;;;;;4418631;32;20978;-66
2022/07/11 09:17:01;;;;;;;0.22;0.22;;;20.00;99.90;;;;;;4426043;32;20411;-66
2022/07/11 09:19:28;;;;;;;1.45;0.75;;;19.80;99.90;;;;;;4436939;32;20069;-66
2022/07/11 09:25:35;;;;;;;0.50;0.50;;;19.50;99.90;;;;;;4418654;32;20094;-66
2022/07/11 09:28:05;;;;;;;0.50;0.50;;;19.70;99.90;;;;;;4445591;32;20115;-66
2022/07/11 09:30:35;;;;;;;0.65;0.45;;;20.00;99.90;;;;;;4441959;32;20054;-66
2022/07/11 09:33:03;;;;;;;0.40;0.40;;;19.80;99.90;;;;;;4424242;32;20073;-66
2022/07/11 09:35:32;;;;;;;0.35;0.35;;;19.70;99.90;;;;;;4429212;32;20072;-66
2022/07/11 09:38:01;;;;;;;0.28;0.28;;;19.50;99.90;;;;;;4446089;32;20060;-66
2022/07/11 09:40:27;;;;;;;0.20;0.20;;;19.80;99.90;;;;;;4432625;32;20127;-66
2022/07/11 09:42:54;;;;;;;0.52;0.52;;;19.60;99.90;;;;;;4426682;32;20061;-66
2022/07/11 09:45:22;;;;;;;0.20;0.20;;;19.40;99.90;;;;;;4434452;32;20469;-66
2022/07/11 09:47:49;;;;;;;0.73;0.73;;;19.60;99.90;;;;;;4431714;32;20121;-66
2022/07/11 09:50:21;;;;;;;0.30;0.30;;;20.10;99.90;;;;;;4431779;32;20064;-66
2022/07/11 09:53:09;;;;;;;1.17;0.65;;;20.40;99.90;;;;;;4426272;32;20618;-66
2022/07/11 09:55:36;;;;;;;1.75;0.85;;;20.40;99.90;;;;;;4425259;32;20111;-66
2022/07/11 09:58:04;;;;;;;1.02;0.93;;;20.60;99.90;;;;;;4446766;32;20513;-66
2022/07/11 10:00:31;;;;;;;0.40;0.40;;;20.90;99.90;;;;;;4415901;32;20116;-66
2022/07/11 10:02:58;;;;;;;0.20;0.20;;;21.30;99.90;;;;;;4421483;32;20136;-66
2022/07/11 10:05:24;;;;;;;0.30;0.30;;;21.10;99.90;;;;;;4441393;32;20061;-66
2022/07/11 10:07:50;;;;;;;0.20;0.20;;;20.80;99.90;;;;;;4445217;32;20061;-66
2022/07/11 10:10:16;;;;;;;0.32;0.32;;;20.60;99.90;;;;;;4445726;32;20407;-66
2022/07/11 10:12:44;;;;;;;0.47;0.47;;;20.90;99.90;;;;;;4438865;32;20052;-66
2022/07/11 10:15:11;;;;;;;0.20;0.20;;;21.10;99.90;;;;;;4435046;32;20122;-66
2022/07/11 10:18:05;;;;;;;0.88;0.85;;;21.30;99.90;;;;;;4417346;32;20069;-66
2022/07/11 10:20:55;;;;;;;0.50;0.50;;;21.40;99.90;;;;;;4420243;32;20065;-66
2022/07/11 10:23:26;;;;;;;0.32;0.32;;;21.50;99.90;;;;;;4397210;32;20125;-66
2022/07/11 10:26:20;;;;;;;0.22;0.22;;;21.70;99.60;;;;;;4424464;32;20086;-66
2022/07/11 10:28:53;;;;;;;0.28;0.28;;;21.80;99.40;;;;;;4420552;32;20081;-66
2022/07/11 10:31:21;;;;;;;0.32;0.32;;;21.90;99.30;;;;;;4424041;32;20330;-66
2022/07/11 10:34:08;;;;;;;0.40;0.40;;;22.10;98.70;;;;;;4419879;32;20075;-66
2022/07/11 10:36:40;;;;;;;1.45;0.75;;;22.30;99.10;;;;;;4406421;32;20070;-66
2022/07/11 10:39:24;;;;;;;1.05;0.57;;;22.70;98.20;;;;;;4418294;32;20078;-67
2022/07/11 10:41:51;;;;;;;0.20;0.20;;;23.20;97.30;;;;;;4428611;32;20779;-66
2022/07/11 10:44:17;;;;;;;0.20;0.20;;;23.40;96.00;;;;;;4419663;32;20190;-66
2022/07/11 10:46:43;;;;;;;0.20;0.20;;;23.20;97.00;;;;;;4413555;32;20517;-66
2022/07/11 10:49:18;;;;;;;0.20;0.20;;;22.70;97.10;;;;;;4431354;32;20081;-66
2022/07/11 10:51:50;;;;;;;0.20;0.20;;;22.50;96.90;;;;;;4432036;32;20505;-66
2022/07/11 10:54:32;;;;;;;1.85;0.93;;;22.30;97.30;;;;;;4426953;32;20081;-66
2022/07/11 10:57:04;;;;;;;0.20;0.20;;;22.10;97.90;;;;;;4445284;32;20073;-66
2022/07/11 10:59:29;;;;;;;0.45;0.32;;;22.50;97.80;;;;;;4444180;32;20069;-66
2022/07/11 11:02:10;;;;;;;0.20;0.20;;;22.90;96.40;;;;;;4421306;32;20064;-66
2022/07/11 11:05:01;;;;;;;0.30;0.30;;;23.20;95.30;;;;;;4424757;32;20072;-66
2022/07/11 11:07:46;;;;;;;0.30;0.30;;;23.60;95.50;;;;;;4445375;32;20470;-66
2022/07/11 11:10:38;;;;;;;0.20;0.20;;;23.90;95.00;;;;;;4421212;32;20083;-66
2022/07/11 11:13:09;;;;;;;0.40;0.40;;;24.00;94.80;;;;;;4437660;32;20375;-66
2022/07/11 11:15:39;;;;;;;0.20;0.20;;;24.40;93.70;;;;;;4434279;32;20434;-66
2022/07/11 11:18:26;;;;;;;0.10;0.10;;;24.50;92.90;;;;;;4445623;32;20116;-66
2022/07/11 11:21:09;;;;;;;0.20;0.20;;;24.50;92.80;;;;;;4414768;32;20452;-66
2022/07/11 11:23:38;;;;;;;0.17;0.17;;;24.80;92.50;;;;;;4407188;32;20195;-66
2022/07/11 11:26:05;;;;;;;0.90;0.40;;;24.80;91.90;;;;;;4412483;32;20619;-66
2022/07/11 11:28:31;;;;;;;0.20;0.20;;;25.00;91.90;;;;;;4415237;32;20082;-66
2022/07/11 11:30:59;;;;;;;0.10;0.10;;;25.20;89.40;;;;;;4409804;32;20077;-66
2022/07/11 11:33:27;;;;;;;0.37;0.37;;;25.60;88.00;;;;;;4393445;32;20161;-67
2022/07/11 11:36:09;;;;;;;0.00;0.00;;;25.50;87.70;;;;;;4413446;32;20120;-67
2022/07/11 11:38:39;;;;;;;0.17;0.17;;;25.50;87.50;;;;;;4415487;32;20085;-66
2022/07/11 11:41:06;;;;;;;0.20;0.20;;;25.20;90.60;;;;;;4421846;32;20066;-66
2022/07/11 11:43:33;;;;;;;0.10;0.10;;;25.50;89.60;;;;;;4434538;32;20065;-66
2022/07/11 11:45:59;;;;;;;0.20;0.20;;;25.60;89.50;;;;;;4417338;32;20057;-66
2022/07/11 11:48:28;;;;;;;0.10;0.10;;;25.40;89.40;;;;;;4444113;32;20119;-66
2022/07/11 11:51:03;;;;;;;1.45;0.30;;;25.50;86.90;;;;;;4447067;32;20531;-66
2022/07/11 11:53:46;;;;;;;0.10;0.10;;;25.60;87.70;;;;;;4408670;32;20078;-64
2022/07/11 11:56:20;;;;;;;0.13;0.13;;;26.00;88.50;;;;;;4426574;32;20085;-64
2022/07/11 11:58:46;;;;;;;0.10;0.10;;;26.00;84.90;;;;;;4445438;32;20061;-64
2022/07/11 12:01:13;;;;;;;0.20;0.20;;;25.50;87.90;;;;;;4437747;32;20149;-64
2022/07/11 12:03:56;;;;;;;0.00;0.00;;;25.20;87.60;;;;;;4433858;32;20062;-66
2022/07/11 12:06:26;;;;;;;0.77;0.28;;;25.50;84.10;;;;;;4444014;32;20065;-64
2022/07/11 12:08:51;;;;;;;0.32;0.15;;;25.80;84.30;;;;;;4443601;32;20061;-66
2022/07/11 12:11:17;;;;;;;0.17;0.17;;;25.70;86.00;;;;;;4429838;32;20073;-66
2022/07/11 12:13:44;;;;;;;0.10;0.10;;;25.20;85.60;;;;;;4434983;32;20065;-66
2022/07/11 12:16:49;;;;;;;0.10;0.10;;;24.80;87.50;;;;;;4435655;32;20049;-66
2022/07/11 12:19:03;;;;;;;0.10;0.10;;;25.40;87.90;;;;;;4424212;32;20115;-66
2022/07/11 12:21:30;;;;;;;1.23;0.55;;;26.20;85.20;;;;;;4405537;32;20805;-66
2022/07/11 12:24:00;;;;;;;0.10;0.10;;;25.80;84.20;;;;;;4396238;32;20058;-66
2022/07/11 12:26:27;;;;;;;0.00;0.00;;;25.00;86.30;;;;;;4413500;32;20082;-65
2022/07/11 12:29:12;;;;;;;0.08;0.08;;;25.20;86.50;;;;;;4429661;32;20565;-66
2022/07/11 12:31:47;;;;;;;4.97;0.55;;;25.30;83.50;;;;;;4406797;32;20503;-66
2022/07/11 12:34:15;;;;;;;0.10;0.10;;;25.90;84.00;;;;;;4419452;32;20140;-66
2022/07/11 12:36:41;;;;;;;0.10;0.10;;;27.10;82.30;;;;;;4431893;32;20612;-64
2022/07/11 12:39:08;;;;;;;0.00;0.00;;;27.90;80.10;;;;;;4432058;32;20057;-65
2022/07/11 12:41:34;;;;;;;0.28;0.10;;;28.00;80.80;;;;;;4431722;32;20065;-66
2022/07/11 12:45:00;;;;;;;0.00;0.00;;;27.10;80.40;;;;;;4407075;32;20581;-66
2022/07/11 12:46:48;;;;;;;0.00;0.00;;;26.60;83.80;;;;;;4402790;32;20062;-66
2022/07/11 12:49:15;;;;;;;0.10;0.10;;;27.00;79.30;;;;;;4439168;32;20116;-66
2022/07/11 12:51:43;;;;;;;1.85;0.65;;;27.90;77.10;;;;;;4420787;32;20085;-64